createdAt,value
2016-10-18T00:00:44.839Z,11.44
2016-10-18T00:01:43.597Z,11.44
2016-10-18T00:02:43.825Z,11.44
2016-10-18T00:03:44.369Z,11.48
2016-10-18T00:04:43.928Z,11.48
2016-10-18T00:05:44.319Z,11.44
2016-10-18T00:06:46.340Z,11.52
2016-10-18T00:07:43.996Z,11.47
2016-10-18T00:08:45.370Z,11.47
2016-10-18T00:09:43.672Z,11.51
2016-10-18T00:10:44.250Z,11.45
2016-10-18T00:11:44.247Z,11.5
2016-10-18T00:12:45.523Z,11.47
2016-10-18T00:13:44.322Z,11.45
2016-10-18T00:14:46.849Z,11.57
2016-10-18T00:15:43.870Z,11.5
2016-10-18T00:16:43.863Z,11.48
2016-10-18T00:17:44.637Z,11.5
2016-10-18T00:18:44.923Z,11.47
2016-10-18T00:19:44.040Z,11.43
2016-10-18T00:20:44.057Z,11.45
2016-10-18T00:21:44.144Z,11.55
2016-10-18T00:22:45.582Z,11.41
2016-10-18T00:23:45.492Z,11.4
2016-10-18T00:24:44.339Z,11.44
2016-10-18T00:25:44.483Z,11.47
2016-10-18T00:26:45.194Z,11.47
2016-10-18T00:27:43.929Z,11.54
2016-10-18T00:28:46.070Z,11.51
2016-10-18T00:29:45.532Z,11.5
2016-10-18T00:30:45.314Z,11.48
2016-10-18T00:31:44.902Z,11.44
2016-10-18T00:32:44.558Z,11.45
2016-10-18T00:33:44.207Z,11.47
2016-10-18T00:34:45.226Z,11.47
2016-10-18T00:35:43.830Z,11.55
2016-10-18T00:36:44.266Z,11.59
2016-10-18T00:37:45.358Z,11.55
2016-10-18T00:38:44.764Z,11.6
2016-10-18T00:39:45.538Z,11.54
2016-10-18T00:40:46.351Z,11.66
2016-10-18T00:41:44.142Z,11.63
2016-10-18T00:42:44.542Z,11.68
2016-10-18T00:43:45.626Z,11.7
2016-10-18T00:44:47.180Z,11.72
2016-10-18T00:45:45.568Z,11.8
2016-10-18T00:46:44.957Z,11.77
2016-10-18T00:47:44.618Z,11.94
2016-10-18T00:48:46.971Z,11.8
2016-10-18T00:49:45.524Z,11.83
2016-10-18T00:50:45.392Z,11.83
2016-10-18T00:51:45.887Z,11.83
2016-10-18T00:52:45.478Z,11.83
2016-10-18T00:53:47.172Z,11.8
2016-10-18T00:54:45.066Z,11.7
2016-10-18T00:55:45.259Z,11.73
2016-10-18T00:56:45.231Z,11.72
2016-10-18T00:57:46.098Z,11.87
2016-10-18T00:58:45.554Z,11.8
2016-10-18T00:59:45.356Z,11.8
2016-10-18T01:00:45.270Z,11.77
2016-10-18T01:01:45.117Z,11.77
2016-10-18T01:02:45.744Z,11.73
2016-10-18T01:03:45.771Z,11.69
2016-10-18T01:04:46.968Z,11.69
2016-10-18T01:05:45.635Z,11.8
2016-10-18T01:06:46.704Z,11.7
2016-10-18T01:07:47.447Z,11.7
2016-10-18T01:08:45.972Z,11.73
2016-10-18T01:09:44.965Z,11.72
2016-10-18T01:10:45.392Z,11.69
2016-10-18T01:11:45.805Z,11.7
2016-10-18T01:12:45.849Z,11.66
2016-10-18T01:13:45.797Z,11.7
2016-10-18T01:14:46.525Z,11.62
2016-10-18T01:15:45.760Z,11.57
2016-10-18T01:16:46.199Z,11.52
2016-10-18T01:17:46.160Z,11.55
2016-10-18T01:18:46.234Z,11.47
2016-10-18T01:19:46.151Z,11.44
2016-10-18T01:20:45.991Z,11.47
2016-10-18T01:21:45.499Z,11.44
2016-10-18T01:22:45.466Z,11.43
2016-10-18T01:23:45.883Z,11.4
2016-10-18T01:24:45.976Z,11.35
2016-10-18T01:25:46.533Z,11.41
2016-10-18T01:26:48.299Z,11.4
2016-10-18T01:27:48.542Z,11.35
2016-10-18T01:28:45.749Z,11.43
2016-10-18T01:29:45.964Z,11.41
2016-10-18T01:30:45.832Z,11.48
2016-10-18T01:31:45.813Z,11.44
2016-10-18T01:32:47.667Z,11.59
2016-10-18T01:33:45.909Z,11.6
2016-10-18T01:34:46.122Z,11.57
2016-10-18T01:35:45.985Z,11.59
2016-10-18T01:36:45.926Z,11.52
2016-10-18T01:37:46.293Z,11.59
2016-10-18T01:38:46.588Z,11.54
2016-10-18T01:39:46.736Z,11.57
2016-10-18T01:40:46.993Z,11.6
2016-10-18T01:41:46.095Z,11.59
2016-10-18T01:42:45.562Z,11.5
2016-10-18T01:43:46.309Z,11.66
2016-10-18T01:44:45.881Z,11.65
2016-10-18T01:45:47.478Z,11.55
2016-10-18T01:46:46.184Z,11.65
2016-10-18T01:47:46.829Z,11.59
2016-10-18T01:48:46.139Z,11.57
2016-10-18T01:49:46.265Z,11.7
2016-10-18T01:50:46.435Z,11.57
2016-10-18T01:51:47.619Z,11.65
2016-10-18T01:52:48.211Z,11.68
2016-10-18T01:53:46.407Z,11.7
2016-10-18T01:54:48.776Z,11.69
2016-10-18T01:55:46.803Z,11.65
2016-10-18T01:56:46.863Z,11.59
2016-10-18T01:57:46.106Z,11.6
2016-10-18T01:58:47.481Z,11.66
2016-10-18T01:59:45.807Z,11.6
2016-10-18T02:00:46.185Z,11.6
2016-10-18T02:01:45.962Z,11.52
2016-10-18T02:02:46.536Z,11.45
2016-10-18T02:03:45.741Z,11.47
2016-10-18T02:04:47.181Z,11.45
2016-10-18T02:05:46.422Z,11.4
2016-10-18T02:06:47.329Z,11.5
2016-10-18T02:07:46.234Z,11.48
2016-10-18T02:08:47.259Z,11.5
2016-10-18T02:09:47.650Z,11.47
2016-10-18T02:10:46.546Z,11.32
2016-10-18T02:11:46.257Z,11.41
2016-10-18T02:12:46.449Z,11.29
2016-10-18T02:13:46.404Z,11.3
2016-10-18T02:14:47.306Z,11.35
2016-10-18T02:15:46.611Z,11.22
2016-10-18T02:16:47.587Z,11.17
2016-10-18T02:17:46.969Z,11.23
2016-10-18T02:18:47.596Z,11.29
2016-10-18T02:19:47.180Z,11.22
2016-10-18T02:20:45.988Z,11.19
2016-10-18T02:21:46.104Z,11.22
2016-10-18T02:22:46.676Z,11.23
2016-10-18T02:23:48.029Z,11.14
2016-10-18T02:24:46.214Z,11.17
2016-10-18T02:25:46.593Z,11.18
2016-10-18T02:26:47.471Z,11.11
2016-10-18T02:27:46.564Z,11.1
2016-10-18T02:28:46.780Z,11.08
2016-10-18T02:29:47.900Z,11.14
2016-10-18T02:30:47.623Z,11.08
2016-10-18T02:31:46.526Z,11.07
2016-10-18T02:32:47.247Z,11.14
2016-10-18T02:33:46.648Z,11.07
2016-10-18T02:34:46.716Z,11.08
2016-10-18T02:35:46.379Z,11.11
2016-10-18T02:36:48.366Z,11.04
2016-10-18T02:37:48.111Z,11.04
2016-10-18T02:38:48.344Z,11.04
2016-10-18T02:39:47.920Z,11.02
2016-10-18T02:40:46.306Z,11
2016-10-18T02:41:46.900Z,10.93
2016-10-18T02:42:46.861Z,10.81
2016-10-18T02:43:46.515Z,10.75
2016-10-18T02:44:49.021Z,10.76
2016-10-18T02:45:47.083Z,10.75
2016-10-18T02:46:47.009Z,10.68
2016-10-18T02:47:48.917Z,10.69
2016-10-18T02:48:48.406Z,10.56
2016-10-18T02:49:47.818Z,10.57
2016-10-18T02:50:47.855Z,10.51
2016-10-18T02:51:46.766Z,10.42
2016-10-18T02:52:47.409Z,10.51
2016-10-18T02:53:47.365Z,10.48
2016-10-18T02:54:48.097Z,10.49
2016-10-18T02:55:48.714Z,10.54
2016-10-18T02:56:47.373Z,10.59
2016-10-18T02:57:47.070Z,10.6
2016-10-18T02:58:48.201Z,10.67
2016-10-18T02:59:47.946Z,10.72
2016-10-18T03:00:48.512Z,10.61
2016-10-18T03:01:47.313Z,10.6
2016-10-18T03:02:47.275Z,10.67
2016-10-18T03:03:46.641Z,10.68
2016-10-18T03:04:47.485Z,10.69
2016-10-18T03:05:48.803Z,10.57
2016-10-18T03:06:48.393Z,10.61
2016-10-18T03:07:47.191Z,10.68
2016-10-18T03:08:47.789Z,10.68
2016-10-18T03:09:47.816Z,10.76
2016-10-18T03:10:48.544Z,10.72
2016-10-18T03:11:47.604Z,10.81
2016-10-18T03:12:48.572Z,10.78
2016-10-18T03:13:48.550Z,10.76
2016-10-18T03:14:47.815Z,10.86
2016-10-18T03:15:48.324Z,10.84
2016-10-18T03:16:48.579Z,10.86
2016-10-18T03:17:48.476Z,10.81
2016-10-18T03:18:48.227Z,10.82
2016-10-18T03:19:48.077Z,10.84
2016-10-18T03:20:48.076Z,10.86
2016-10-18T03:21:49.397Z,10.86
2016-10-18T03:22:48.664Z,10.86
2016-10-18T03:23:47.705Z,10.78
2016-10-18T03:24:47.878Z,10.84
2016-10-18T03:25:46.834Z,10.82
2016-10-18T03:26:48.244Z,10.86
2016-10-18T03:27:48.211Z,10.86
2016-10-18T03:28:47.767Z,10.82
2016-10-18T03:29:47.584Z,10.97
2016-10-18T03:30:47.807Z,11.02
2016-10-18T03:31:49.745Z,10.99
2016-10-18T03:32:48.136Z,11
2016-10-18T03:33:47.405Z,11.05
2016-10-18T03:34:48.459Z,10.96
2016-10-18T03:35:47.381Z,10.92
2016-10-18T03:36:49.654Z,10.97
2016-10-18T03:37:48.175Z,10.93
2016-10-18T03:38:48.533Z,10.99
2016-10-18T03:39:47.932Z,11.1
2016-10-18T03:40:48.540Z,11.07
2016-10-18T03:41:47.693Z,11.05
2016-10-18T03:42:48.158Z,11.14
2016-10-18T03:43:48.487Z,11.05
2016-10-18T03:44:47.794Z,11.05
2016-10-18T03:45:47.913Z,11.11
2016-10-18T03:46:48.741Z,11.1
2016-10-18T03:47:48.838Z,11.04
2016-10-18T03:48:48.496Z,11.07
2016-10-18T03:49:49.165Z,11.07
2016-10-18T03:50:48.571Z,11.02
2016-10-18T03:51:49.202Z,10.92
2016-10-18T03:52:49.148Z,10.97
2016-10-18T03:53:48.932Z,10.97
2016-10-18T03:54:49.041Z,10.93
2016-10-18T03:55:50.002Z,10.93
2016-10-18T03:56:48.439Z,10.89
2016-10-18T03:57:49.015Z,10.82
2016-10-18T03:58:48.287Z,10.87
2016-10-18T03:59:49.619Z,10.84
2016-10-18T04:00:48.639Z,10.79
2016-10-18T04:01:48.643Z,10.89
2016-10-18T04:02:48.553Z,10.79
2016-10-18T04:03:47.975Z,10.75
2016-10-18T04:04:48.425Z,10.67
2016-10-18T04:05:49.670Z,10.72
2016-10-18T04:06:49.022Z,10.78
2016-10-18T04:07:48.683Z,10.69
2016-10-18T04:08:49.380Z,10.61
2016-10-18T04:09:49.235Z,10.54
2016-10-18T04:10:49.470Z,10.64
2016-10-18T04:11:47.764Z,10.61
2016-10-18T04:12:48.303Z,10.59
2016-10-18T04:13:49.528Z,10.57
2016-10-18T04:14:49.474Z,10.6
2016-10-18T04:15:49.059Z,10.59
2016-10-18T04:16:49.444Z,10.57
2016-10-18T04:17:50.559Z,10.6
2016-10-18T04:18:48.437Z,10.54
2016-10-18T04:19:50.257Z,10.53
2016-10-18T04:20:48.807Z,10.6
2016-10-18T04:21:48.832Z,10.57
2016-10-18T04:22:50.258Z,10.56
2016-10-18T04:23:49.447Z,10.53
2016-10-18T04:24:48.397Z,10.59
2016-10-18T04:25:49.382Z,10.53
2016-10-18T04:26:48.733Z,10.53
2016-10-18T04:27:49.617Z,10.48
2016-10-18T04:28:52.027Z,10.53
2016-10-18T04:29:50.083Z,10.51
2016-10-18T04:30:49.943Z,10.57
2016-10-18T04:31:48.743Z,10.6
2016-10-18T04:32:48.956Z,10.4
2016-10-18T04:33:49.932Z,10.35
2016-10-18T04:34:49.533Z,10.42
2016-10-18T04:35:49.298Z,10.37
2016-10-18T04:36:48.927Z,10.48
2016-10-18T04:37:48.644Z,10.4
2016-10-18T04:38:49.975Z,10.35
2016-10-18T04:39:49.583Z,10.31
2016-10-18T04:40:50.469Z,10.3
2016-10-18T04:41:49.990Z,10.4
2016-10-18T04:42:49.462Z,10.33
2016-10-18T04:43:50.450Z,10.3
2016-10-18T04:44:50.501Z,10.22
2016-10-18T04:45:49.994Z,10.37
2016-10-18T04:46:49.334Z,10.42
2016-10-18T04:47:50.022Z,10.34
2016-10-18T04:48:50.217Z,10.33
2016-10-18T04:49:49.350Z,10.31
2016-10-18T04:50:50.033Z,10.26
2016-10-18T04:52:50.156Z,10.26
2016-10-18T04:53:48.925Z,10.3
2016-10-18T04:54:50.627Z,10.33
2016-10-18T04:55:51.301Z,10.35
2016-10-18T04:56:50.484Z,10.31
2016-10-18T04:57:49.449Z,10.31
2016-10-18T04:58:51.282Z,10.22
2016-10-18T04:59:50.587Z,10.23
2016-10-18T05:00:50.615Z,10.25
2016-10-18T05:01:51.289Z,10.26
2016-10-18T05:02:50.371Z,10.19
2016-10-18T05:03:50.535Z,10.25
2016-10-18T05:04:49.343Z,10.26
2016-10-18T05:05:50.943Z,10.25
2016-10-18T05:06:50.169Z,10.16
2016-10-18T05:07:50.170Z,10.25
2016-10-18T05:08:50.727Z,10.23
2016-10-18T05:09:51.534Z,10.17
2016-10-18T05:10:49.854Z,10.19
2016-10-18T05:11:52.124Z,10.23
2016-10-18T05:12:50.270Z,10.22
2016-10-18T05:13:52.488Z,10.22
2016-10-18T05:14:50.140Z,10.26
2016-10-18T05:15:49.583Z,10.25
2016-10-18T05:16:50.464Z,10.23
2016-10-18T05:17:52.075Z,10.16
2016-10-18T05:18:50.654Z,10.19
2016-10-18T05:19:49.518Z,10.22
2016-10-18T05:20:50.005Z,10.25
2016-10-18T05:21:52.842Z,10.2
2016-10-18T05:22:50.340Z,10.28
2016-10-18T05:23:51.726Z,10.23
2016-10-18T05:24:49.696Z,10.22
2016-10-18T05:25:51.237Z,10.23
2016-10-18T05:26:50.664Z,10.33
2016-10-18T05:27:50.579Z,10.22
2016-10-18T05:28:50.956Z,10.3
2016-10-18T05:29:50.956Z,10.31
2016-10-18T05:30:51.419Z,10.22
2016-10-18T05:31:51.128Z,10.25
2016-10-18T05:32:52.026Z,10.22
2016-10-18T05:33:51.251Z,10.26
2016-10-18T05:34:51.507Z,10.17
2016-10-18T05:35:49.922Z,10.13
2016-10-18T05:36:50.596Z,10.2
2016-10-18T05:37:50.245Z,10.15
2016-10-18T05:38:50.560Z,10.22
2016-10-18T05:39:49.961Z,10.16
2016-10-18T05:40:51.095Z,10.05
2016-10-18T05:41:51.382Z,10.15
2016-10-18T05:42:50.174Z,10.22
2016-10-18T05:43:50.504Z,10.22
2016-10-18T05:44:50.736Z,10.25
2016-10-18T05:45:50.511Z,10.17
2016-10-18T05:46:50.344Z,10.28
2016-10-18T05:47:50.478Z,10.22
2016-10-18T05:48:50.158Z,10.31
2016-10-18T05:49:50.819Z,10.25
2016-10-18T05:50:51.305Z,10.22
2016-10-18T05:51:51.887Z,10.3
2016-10-18T05:52:50.520Z,10.26
2016-10-18T05:53:51.510Z,10.4
2016-10-18T05:54:51.223Z,10.17
2016-10-18T05:55:51.212Z,10.25
2016-10-18T05:56:51.444Z,10.35
2016-10-18T05:57:50.664Z,10.28
2016-10-18T05:58:51.261Z,10.23
2016-10-18T05:59:50.348Z,10.23
2016-10-18T06:00:52.143Z,10.25
2016-10-18T06:01:50.789Z,10.25
2016-10-18T06:02:51.144Z,10.28
2016-10-18T06:03:50.729Z,10.26
2016-10-18T06:04:51.506Z,10.22
2016-10-18T06:05:50.392Z,10.25
2016-10-18T06:06:50.944Z,10.2
2016-10-18T06:07:52.115Z,10.19
2016-10-18T06:08:50.404Z,10.26
2016-10-18T06:09:50.594Z,10.22
2016-10-18T06:10:50.966Z,10.23
2016-10-18T06:11:52.220Z,10.15
2016-10-18T06:12:50.921Z,10.17
2016-10-18T06:13:51.071Z,10.16
2016-10-18T06:14:50.988Z,10.16
2016-10-18T06:15:51.379Z,10.22
2016-10-18T06:16:51.062Z,10.1
2016-10-18T06:17:51.541Z,10.09
2016-10-18T06:18:51.824Z,10.09
2016-10-18T06:19:51.175Z,10.22
2016-10-18T06:20:51.144Z,10.2
2016-10-18T06:21:50.693Z,10.17
2016-10-18T06:22:51.081Z,10.15
2016-10-18T06:23:52.091Z,10.19
2016-10-18T06:24:51.407Z,10.26
2016-10-18T06:25:51.942Z,10.15
2016-10-18T06:26:50.510Z,10.26
2016-10-18T06:27:51.353Z,10.28
2016-10-18T06:28:51.578Z,10.2
2016-10-18T06:29:51.024Z,10.22
2016-10-18T06:30:53.708Z,10.25
2016-10-18T06:31:50.454Z,10.17
2016-10-18T06:32:50.850Z,10.23
2016-10-18T06:33:51.915Z,10.22
2016-10-18T06:34:51.876Z,10.15
2016-10-18T06:35:50.943Z,10.22
2016-10-18T06:36:51.032Z,10.23
2016-10-18T06:37:52.413Z,10.2
2016-10-18T06:38:51.553Z,10.28
2016-10-18T06:39:51.293Z,10.25
2016-10-18T06:40:53.413Z,10.17
2016-10-18T06:41:52.587Z,10.17
2016-10-18T06:42:50.949Z,10.16
2016-10-18T06:43:51.867Z,10.17
2016-10-18T06:44:51.197Z,10.19
2016-10-18T06:45:52.266Z,10.22
2016-10-18T06:46:50.464Z,10.2
2016-10-18T06:47:51.334Z,10.25
2016-10-18T06:48:50.698Z,10.22
2016-10-18T06:49:51.583Z,10.22
2016-10-18T06:50:51.888Z,10.2
2016-10-18T06:51:53.134Z,10.25
2016-10-18T06:52:51.146Z,10.28
2016-10-18T06:53:52.340Z,10.35
2016-10-18T06:54:51.268Z,10.33
2016-10-18T06:55:51.642Z,10.26
2016-10-18T06:56:51.134Z,10.34
2016-10-18T06:57:51.410Z,10.35
2016-10-18T06:58:53.148Z,10.28
2016-10-18T06:59:51.521Z,10.33
2016-10-18T07:00:53.122Z,10.35
2016-10-18T07:01:52.319Z,10.38
2016-10-18T07:02:51.541Z,10.37
2016-10-18T07:03:52.107Z,10.35
2016-10-18T07:04:52.863Z,10.35
2016-10-18T07:05:51.733Z,10.25
2016-10-18T07:06:52.141Z,10.12
2016-10-18T07:07:52.456Z,10.12
2016-10-18T07:08:52.245Z,10.04
2016-10-18T07:09:52.928Z,10.04
2016-10-18T07:10:53.053Z,10.07
2016-10-18T07:11:52.043Z,10.02
2016-10-18T07:12:52.845Z,9.98
2016-10-18T07:13:53.139Z,9.97
2016-10-18T07:14:52.253Z,9.97
2016-10-18T07:15:52.042Z,10.04
2016-10-18T07:16:51.181Z,9.95
2016-10-18T07:17:52.333Z,10.09
2016-10-18T07:18:53.300Z,10.05
2016-10-18T07:19:52.056Z,10.09
2016-10-18T07:20:53.060Z,10.09
2016-10-18T07:21:52.750Z,10.09
2016-10-18T07:22:51.950Z,10.17
2016-10-18T07:23:51.788Z,10.25
2016-10-18T07:24:53.477Z,10.23
2016-10-18T07:25:52.703Z,10.25
2016-10-18T07:26:51.599Z,10.26
2016-10-18T07:27:52.300Z,10.12
2016-10-18T07:28:52.112Z,9.98
2016-10-18T07:29:52.005Z,10.02
2016-10-18T07:30:53.248Z,9.95
2016-10-18T07:31:52.973Z,9.89
2016-10-18T07:32:51.893Z,9.86
2016-10-18T07:33:52.213Z,9.94
2016-10-18T07:34:51.493Z,9.94
2016-10-18T07:35:51.734Z,9.98
2016-10-18T07:36:51.856Z,9.89
2016-10-18T07:37:52.678Z,9.97
2016-10-18T07:38:52.104Z,9.95
2016-10-18T07:39:52.947Z,9.97
2016-10-18T07:40:52.505Z,9.97
2016-10-18T07:41:52.961Z,10.01
2016-10-18T07:42:52.429Z,10.05
2016-10-18T07:43:52.654Z,10.02
2016-10-18T07:44:52.091Z,9.94
2016-10-18T07:45:52.876Z,10.07
2016-10-18T07:46:52.718Z,10.05
2016-10-18T07:47:52.248Z,9.98
2016-10-18T07:48:52.689Z,10.05
2016-10-18T07:49:53.086Z,9.98
2016-10-18T07:50:52.667Z,10.02
2016-10-18T07:51:54.089Z,10.09
2016-10-18T07:52:52.724Z,10.07
2016-10-18T07:53:52.987Z,10.04
2016-10-18T07:54:52.971Z,10.01
2016-10-18T07:55:53.194Z,10.07
2016-10-18T07:56:53.023Z,10.01
2016-10-18T07:57:54.247Z,10.05
2016-10-18T07:58:53.571Z,10.05
2016-10-18T07:59:54.133Z,10.1
2016-10-18T08:00:52.952Z,10.02
2016-10-18T08:01:52.759Z,10.12
2016-10-18T08:02:53.133Z,10.1
2016-10-18T08:03:52.954Z,10.2
2016-10-18T08:04:54.234Z,10.16
2016-10-18T08:05:52.887Z,10.19
2016-10-18T08:06:53.357Z,10.23
2016-10-18T08:07:54.089Z,10.28
2016-10-18T08:08:53.532Z,10.17
2016-10-18T08:09:53.554Z,10.17
2016-10-18T08:10:53.572Z,10.22
2016-10-18T08:11:53.352Z,10.19
2016-10-18T08:12:52.955Z,10.2
2016-10-18T08:13:53.645Z,10.19
2016-10-18T08:14:54.024Z,10.26
2016-10-18T08:15:54.801Z,10.25
2016-10-18T08:16:53.784Z,10.33
2016-10-18T08:17:53.832Z,10.26
2016-10-18T08:18:53.949Z,10.34
2016-10-18T08:19:52.994Z,10.35
2016-10-18T08:20:52.938Z,10.38
2016-10-18T08:21:54.062Z,10.41
2016-10-18T08:22:53.970Z,10.44
2016-10-18T08:23:53.635Z,10.38
2016-10-18T08:24:53.805Z,10.44
2016-10-18T08:25:54.779Z,10.56
2016-10-18T08:26:53.024Z,10.44
2016-10-18T08:27:52.813Z,10.53
2016-10-18T08:28:53.408Z,10.49
2016-10-18T08:29:53.346Z,10.49
2016-10-18T08:30:53.908Z,10.56
2016-10-18T08:31:54.196Z,10.63
2016-10-18T08:32:53.604Z,10.68
2016-10-18T08:33:54.499Z,10.64
2016-10-18T08:34:53.950Z,10.69
2016-10-18T08:35:53.249Z,10.75
2016-10-18T08:36:53.870Z,10.67
2016-10-18T08:37:54.374Z,10.74
2016-10-18T08:38:53.767Z,10.78
2016-10-18T08:39:53.977Z,10.75
2016-10-18T08:40:54.593Z,10.79
2016-10-18T08:41:53.297Z,10.79
2016-10-18T08:42:53.665Z,10.76
2016-10-18T08:43:53.598Z,10.79
2016-10-18T08:44:53.700Z,10.92
2016-10-18T08:45:53.204Z,10.96
2016-10-18T08:46:53.552Z,10.92
2016-10-18T08:47:54.184Z,11.07
2016-10-18T08:48:54.028Z,10.96
2016-10-18T08:49:53.632Z,11.04
2016-10-18T08:50:52.972Z,10.9
2016-10-18T08:51:53.552Z,11.1
2016-10-18T08:52:53.901Z,10.99
2016-10-18T08:53:53.456Z,11.04
2016-10-18T08:54:53.545Z,11.11
2016-10-18T08:55:53.633Z,11.08
2016-10-18T08:56:54.150Z,11.26
2016-10-18T08:57:53.935Z,11.08
2016-10-18T08:58:54.554Z,11.19
2016-10-18T08:59:53.733Z,11.23
2016-10-18T09:00:54.773Z,11.18
2016-10-18T09:01:54.625Z,11.32
2016-10-18T09:02:54.083Z,11.3
2016-10-18T09:03:54.089Z,11.23
2016-10-18T09:04:53.877Z,11.27
2016-10-18T09:05:54.126Z,11.3
2016-10-18T09:06:54.454Z,11.45
2016-10-18T09:07:54.007Z,11.48
2016-10-18T09:08:53.394Z,11.48
2016-10-18T09:09:54.417Z,11.44
2016-10-18T09:10:53.498Z,11.6
2016-10-18T09:11:54.326Z,11.7
2016-10-18T09:12:54.131Z,11.86
2016-10-18T09:13:55.008Z,11.77
2016-10-18T09:14:55.092Z,11.8
2016-10-18T09:15:54.032Z,11.91
2016-10-18T09:16:53.508Z,11.9
2016-10-18T09:17:54.351Z,11.88
2016-10-18T09:18:54.251Z,12
2016-10-18T09:19:55.058Z,11.97
2016-10-18T09:20:55.013Z,11.99
2016-10-18T09:21:54.495Z,12.03
2016-10-18T09:22:55.410Z,12.02
2016-10-18T09:23:53.883Z,12.13
2016-10-18T09:24:54.680Z,12.1
2016-10-18T09:25:55.571Z,11.99
2016-10-18T09:26:54.588Z,12.04
2016-10-18T09:27:55.365Z,12.06
2016-10-18T09:28:55.677Z,12.15
2016-10-18T09:29:54.767Z,12.09
2016-10-18T09:30:55.143Z,12.06
2016-10-18T09:31:54.715Z,12.12
2016-10-18T09:32:56.705Z,12.1
2016-10-18T09:33:55.201Z,12.24
2016-10-18T09:34:55.748Z,12.27
2016-10-18T09:35:54.688Z,12.35
2016-10-18T09:36:55.747Z,12.39
2016-10-18T09:37:55.520Z,12.47
2016-10-18T09:38:55.706Z,12.65
2016-10-18T09:39:55.249Z,12.68
2016-10-18T09:40:55.155Z,12.62
2016-10-18T09:41:55.778Z,12.5
2016-10-18T09:42:54.647Z,12.55
2016-10-18T09:43:54.202Z,12.61
2016-10-18T09:44:54.416Z,12.64
2016-10-18T09:45:55.132Z,12.79
2016-10-18T09:46:55.143Z,12.86
2016-10-18T09:47:55.528Z,12.98
2016-10-18T09:48:57.403Z,13.44
2016-10-18T09:49:55.474Z,13.81
2016-10-18T09:50:55.100Z,14
2016-10-18T09:51:55.155Z,14.54
2016-10-18T09:52:55.261Z,14.77
2016-10-18T09:53:55.020Z,14.69
2016-10-18T09:54:54.827Z,14.45
2016-10-18T09:55:55.908Z,14.58
2016-10-18T09:56:56.050Z,14.55
2016-10-18T09:57:55.880Z,14.41
2016-10-18T09:58:55.490Z,14.85
2016-10-18T09:59:54.425Z,15.03
2016-10-18T10:00:56.178Z,14.72
2016-10-18T10:01:55.673Z,15.1
2016-10-18T10:02:54.846Z,14.92
2016-10-18T10:03:55.412Z,14.85
2016-10-18T10:04:55.666Z,14.73
2016-10-18T10:05:55.318Z,14.7
2016-10-18T10:06:56.759Z,14.3
2016-10-18T10:07:55.370Z,14.14
2016-10-18T10:08:55.113Z,14.2
2016-10-18T10:09:55.826Z,14.17
2016-10-18T10:10:55.933Z,14.53
2016-10-18T10:11:55.759Z,14.94
2016-10-18T10:12:55.864Z,14.79
2016-10-18T10:13:55.737Z,14.97
2016-10-18T10:14:55.322Z,14.91
2016-10-18T10:15:55.742Z,14.78
2016-10-18T10:16:55.484Z,14.37
2016-10-18T10:17:56.552Z,14.36
2016-10-18T10:18:56.566Z,14.7
2016-10-18T10:19:55.414Z,14.69
2016-10-18T10:20:55.769Z,14.89
2016-10-18T10:21:56.145Z,14.73
2016-10-18T10:22:56.013Z,14.82
2016-10-18T10:23:55.970Z,14.84
2016-10-18T10:24:56.018Z,14.66
2016-10-18T10:25:56.306Z,14.47
2016-10-18T10:26:55.989Z,14.66
2016-10-18T10:27:56.759Z,14.81
2016-10-18T10:28:55.845Z,15
2016-10-18T10:29:56.094Z,14.99
2016-10-18T10:30:55.802Z,14.79
2016-10-18T10:31:55.967Z,14.37
2016-10-18T10:32:55.485Z,14.48
2016-10-18T10:33:55.738Z,14.51
2016-10-18T10:34:56.459Z,14.66
2016-10-18T10:35:55.702Z,14.47
2016-10-18T10:36:56.968Z,14.51
2016-10-18T10:37:56.098Z,14.59
2016-10-18T10:38:55.948Z,14.5
2016-10-18T10:39:57.067Z,14.43
2016-10-18T10:40:57.388Z,14.63
2016-10-18T10:41:56.039Z,14.62
2016-10-18T10:42:57.066Z,14.88
2016-10-18T10:43:56.127Z,14.86
2016-10-18T10:44:56.786Z,15.14
2016-10-18T10:45:56.282Z,15.39
2016-10-18T10:46:58.511Z,15.58
2016-10-18T10:47:56.283Z,16.12
2016-10-18T10:48:58.689Z,16.21
2016-10-18T10:49:56.562Z,16.01
2016-10-18T10:50:56.887Z,15.83
2016-10-18T10:51:56.659Z,15.77
2016-10-18T10:52:57.198Z,15.55
2016-10-18T10:53:56.891Z,15.43
2016-10-18T10:54:56.840Z,15.28
2016-10-18T10:55:56.005Z,15.29
2016-10-18T10:56:56.468Z,15.09
2016-10-18T10:57:56.140Z,15.07
2016-10-18T10:58:56.288Z,14.85
2016-10-18T10:59:56.723Z,15
2016-10-18T11:00:57.041Z,14.84
2016-10-18T11:01:56.432Z,14.72
2016-10-18T11:02:56.598Z,14.63
2016-10-18T11:03:56.035Z,14.69
2016-10-18T11:04:58.153Z,14.69
2016-10-18T11:05:57.380Z,14.69
2016-10-18T11:06:56.414Z,14.72
2016-10-18T11:07:56.910Z,14.81
2016-10-18T11:08:56.311Z,14.82
2016-10-18T11:09:56.516Z,15.1
2016-10-18T11:10:57.725Z,15.09
2016-10-18T11:11:57.451Z,15.14
2016-10-18T11:12:56.718Z,15.11
2016-10-18T11:13:56.793Z,15.04
2016-10-18T11:14:56.811Z,15.04
2016-10-18T11:15:57.042Z,15.21
2016-10-18T11:16:57.084Z,15.61
2016-10-18T11:17:57.251Z,16
2016-10-18T11:18:57.409Z,16.36
2016-10-18T11:19:57.611Z,16.69
2016-10-18T11:20:57.185Z,16.96
2016-10-18T11:21:56.788Z,17.27
2016-10-18T11:22:56.469Z,17.54
2016-10-18T11:23:57.564Z,17.68
2016-10-18T11:24:58.050Z,17.76
2016-10-18T11:25:57.864Z,17.79
2016-10-18T11:26:56.742Z,17.82
2016-10-18T11:27:57.875Z,17.56
2016-10-18T11:28:56.642Z,17.68
2016-10-18T11:29:57.612Z,17.57
2016-10-18T11:30:56.687Z,17.7
2016-10-18T11:31:56.473Z,17.33
2016-10-18T11:32:58.061Z,17.24
2016-10-18T11:33:57.130Z,17.39
2016-10-18T11:34:57.827Z,17.54
2016-10-18T11:35:58.601Z,17.11
2016-10-18T11:36:56.604Z,16.68
2016-10-18T11:37:56.937Z,16.56
2016-10-18T11:38:56.936Z,16.83
2016-10-18T11:39:58.309Z,17.09
2016-10-18T11:40:59.277Z,17.15
2016-10-18T11:41:57.517Z,16.93
2016-10-18T11:42:57.524Z,16.79
2016-10-18T11:43:57.196Z,16.54
2016-10-18T11:44:57.257Z,16.5
2016-10-18T11:45:57.651Z,16.36
2016-10-18T11:46:56.725Z,16.24
2016-10-18T11:47:58.680Z,16.5
2016-10-18T11:48:57.753Z,16.49
2016-10-18T11:49:56.866Z,16.81
2016-10-18T11:50:57.121Z,17.23
2016-10-18T11:51:57.079Z,17.64
2016-10-18T11:52:57.800Z,18.22
2016-10-18T11:53:56.869Z,18.22
2016-10-18T11:54:58.021Z,18.41
2016-10-18T11:55:57.869Z,18.81
2016-10-18T11:56:58.097Z,19.22
2016-10-18T11:57:58.116Z,19.02
2016-10-18T11:58:59.043Z,18.58
2016-10-18T11:59:57.521Z,18.71
2016-10-18T12:00:57.521Z,18.1
2016-10-18T12:01:57.328Z,17.49
2016-10-18T12:02:57.783Z,17.23
2016-10-18T12:03:57.461Z,17.01
2016-10-18T12:04:57.937Z,16.79
2016-10-18T12:05:57.536Z,16.78
2016-10-18T12:06:57.860Z,16.87
2016-10-18T12:07:58.448Z,17.11
2016-10-18T12:08:58.077Z,17.41
2016-10-18T12:09:58.707Z,17.42
2016-10-18T12:10:57.972Z,17.71
2016-10-18T12:11:57.518Z,17.95
2016-10-18T12:12:58.009Z,18.22
2016-10-18T12:13:58.076Z,18.63
2016-10-18T12:14:57.587Z,19.37
2016-10-18T12:15:58.204Z,19.51
2016-10-18T12:16:57.964Z,19.73
2016-10-18T12:17:58.202Z,19.51
2016-10-18T12:18:58.378Z,19.18
2016-10-18T12:19:58.133Z,18.84
2016-10-18T12:20:57.719Z,18.49
2016-10-18T12:21:59.054Z,18.04
2016-10-18T12:22:58.227Z,18.04
2016-10-18T12:23:57.993Z,18.08
2016-10-18T12:24:57.782Z,18.38
2016-10-18T12:25:58.120Z,18.38
2016-10-18T12:26:59.244Z,18.11
2016-10-18T12:27:58.245Z,17.83
2016-10-18T12:28:57.933Z,17.63
2016-10-18T12:29:58.904Z,17.27
2016-10-18T12:30:57.749Z,17.06
2016-10-18T12:31:57.971Z,17.08
2016-10-18T12:32:58.486Z,17.06
2016-10-18T12:33:58.438Z,17.51
2016-10-18T12:34:59.038Z,17.94
2016-10-18T12:35:58.799Z,18.05
2016-10-18T12:36:58.191Z,18.4
2016-10-18T12:37:58.233Z,17.94
2016-10-18T12:39:00.405Z,17.71
2016-10-18T12:40:00.153Z,17.6
2016-10-18T12:40:58.752Z,17.79
2016-10-18T12:41:59.792Z,17.26
2016-10-18T12:42:58.581Z,17.12
2016-10-18T12:43:59.063Z,17.06
2016-10-18T12:44:58.450Z,17.01
2016-10-18T12:45:59.640Z,16.78
2016-10-18T12:46:59.529Z,16.57
2016-10-18T12:47:58.698Z,16.35
2016-10-18T12:48:58.439Z,16.49
2016-10-18T12:49:59.696Z,16.38
2016-10-18T12:50:58.644Z,16.41
2016-10-18T12:51:59.593Z,16.87
2016-10-18T12:52:58.236Z,17.26
2016-10-18T12:53:58.856Z,17.67
2016-10-18T12:54:59.193Z,17.83
2016-10-18T12:56:00.545Z,17.8
2016-10-18T12:56:59.261Z,17.8
2016-10-18T12:57:58.703Z,17.56